createdAt,value
2018-04-07T00:00:55.375Z,78.72
2018-04-07T00:03:23.119Z,78.06
2018-04-07T00:05:51.683Z,78.08
2018-04-07T00:08:19.394Z,77.57
2018-04-07T00:10:47.113Z,77.04
2018-04-07T00:13:14.851Z,77.48
2018-04-07T00:15:42.589Z,77.49
2018-04-07T00:18:10.369Z,76.42
2018-04-07T00:20:38.156Z,76.87
2018-04-07T00:23:05.965Z,77.68
2018-04-07T00:25:33.708Z,76.95
2018-04-07T00:28:01.500Z,76.38
2018-04-07T00:30:29.204Z,76.73
2018-04-07T00:32:56.945Z,76.69
2018-04-07T00:35:24.622Z,76.82
2018-04-07T00:37:52.382Z,76.22
2018-04-07T00:40:20.250Z,76.18
2018-04-07T00:42:48.841Z,76.33
2018-04-07T00:45:16.523Z,76.35
2018-04-07T00:47:44.978Z,76.43
2018-04-07T00:50:12.679Z,76.22
2018-04-07T00:52:52.289Z,77.37
2018-04-07T00:55:20.003Z,76.50
2018-04-07T00:57:48.240Z,76.78
2018-04-07T01:00:16.002Z,76.64
2018-04-07T01:02:44.293Z,77.03
2018-04-07T01:05:12.003Z,76.03
2018-04-07T01:07:39.663Z,75.85
2018-04-07T01:10:07.460Z,75.47
2018-04-07T01:12:35.271Z,77.51
2018-04-07T01:15:03.397Z,76.40
2018-04-07T01:17:31.069Z,75.83
2018-04-07T01:19:58.802Z,76.76
2018-04-07T01:22:26.551Z,75.83
2018-04-07T01:24:54.319Z,75.42
2018-04-07T01:27:22.138Z,75.66
2018-04-07T01:29:49.921Z,75.13
2018-04-07T01:32:18.128Z,75.62
2018-04-07T01:34:45.850Z,75.86
2018-04-07T01:37:13.661Z,75.61
2018-04-07T01:39:41.386Z,75.21
2018-04-07T01:42:09.214Z,75.33
2018-04-07T01:44:36.908Z,74.98
2018-04-07T01:47:04.628Z,74.77
2018-04-07T01:49:32.383Z,74.92
2018-04-07T01:52:00.098Z,75.63
2018-04-07T01:54:27.785Z,76.96
2018-04-07T01:56:56.723Z,76.07
2018-04-07T01:59:24.593Z,75.65
2018-04-07T02:01:52.316Z,75.57
2018-04-07T02:04:20.054Z,75.53
2018-04-07T02:06:47.884Z,75.79
2018-04-07T02:09:15.560Z,76.49
2018-04-07T02:11:43.289Z,77.37
2018-04-07T02:14:11.691Z,76.38
2018-04-07T02:16:39.420Z,76.20
2018-04-07T02:19:07.134Z,76.46
2018-04-07T02:21:35.284Z,77.20
2018-04-07T02:24:03.066Z,77.78
2018-04-07T02:26:30.824Z,76.13
2018-04-07T02:28:58.585Z,76.46
2018-04-07T02:31:26.308Z,76.41
2018-04-07T02:33:54.093Z,76.23
2018-04-07T02:36:21.780Z,76.24
2018-04-07T02:38:49.509Z,76.61
2018-04-07T02:41:17.281Z,76.24
2018-04-07T02:43:44.991Z,77.08
2018-04-07T02:46:15.516Z,76.03
2018-04-07T02:48:43.280Z,76.46
2018-04-07T02:51:11.031Z,76.64
2018-04-07T02:53:38.813Z,76.83
2018-04-07T02:56:06.682Z,76.92
2018-04-07T02:58:34.413Z,76.76
2018-04-07T03:01:02.232Z,76.96
2018-04-07T03:03:29.914Z,76.97
2018-04-07T03:05:57.682Z,76.82
2018-04-07T03:08:26.698Z,76.63
2018-04-07T03:10:54.402Z,76.82
2018-04-07T03:13:22.839Z,77.05
2018-04-07T03:15:50.614Z,77.11
2018-04-07T03:18:18.344Z,76.69
2018-04-07T03:20:46.816Z,76.58
2018-04-07T03:23:14.619Z,76.70
2018-04-07T03:25:42.314Z,77.01
2018-04-07T03:28:10.086Z,76.47
2018-04-07T03:30:37.868Z,76.14
2018-04-07T03:33:05.634Z,76.00
2018-04-07T03:35:33.297Z,75.82
2018-04-07T03:38:01.131Z,76.47
2018-04-07T03:40:28.874Z,77.28
2018-04-07T03:42:57.220Z,76.30
2018-04-07T03:45:25.092Z,76.87
2018-04-07T03:47:52.827Z,77.05
2018-04-07T03:50:21.636Z,77.38
2018-04-07T03:52:49.359Z,77.89
2018-04-07T03:55:17.768Z,76.65
2018-04-07T03:57:45.467Z,76.44
2018-04-07T04:00:13.193Z,76.96
2018-04-07T04:02:41.045Z,76.71
2018-04-07T04:05:08.825Z,76.85
2018-04-07T04:07:36.504Z,76.93
2018-04-07T04:10:04.387Z,76.71
2018-04-07T04:12:32.177Z,76.14
2018-04-07T04:14:59.852Z,76.33
2018-04-07T04:17:27.632Z,76.09
2018-04-07T04:19:56.325Z,76.03
2018-04-07T04:22:23.983Z,76.15
2018-04-07T04:24:51.699Z,75.50
2018-04-07T04:27:19.362Z,74.74
2018-04-07T04:29:47.074Z,74.96
2018-04-07T04:32:14.846Z,75.85
2018-04-07T04:34:42.550Z,75.54
2018-04-07T04:37:10.365Z,75.79
2018-04-07T04:39:38.146Z,75.71
2018-04-07T04:42:07.524Z,75.31
2018-04-07T04:44:35.292Z,76.69
2018-04-07T04:47:02.949Z,76.88
2018-04-07T04:49:30.664Z,75.98
2018-04-07T04:51:58.327Z,76.27
2018-04-07T04:54:26.101Z,76.44
2018-04-07T04:56:53.831Z,75.12
2018-04-07T04:59:22.805Z,76.26
2018-04-07T05:01:50.453Z,76.18
2018-04-07T05:04:18.174Z,74.42
2018-04-07T05:06:48.407Z,74.24
2018-04-07T05:09:17.680Z,73.55
2018-04-07T05:11:45.431Z,73.40
2018-04-07T05:14:14.234Z,73.90
2018-04-07T05:16:41.989Z,74.04
2018-04-07T05:19:09.762Z,73.93
2018-04-07T05:21:37.549Z,73.19
2018-04-07T05:24:05.234Z,73.34
2018-04-07T05:26:33.033Z,73.05
2018-04-07T05:29:00.716Z,72.56
2018-04-07T05:31:28.382Z,72.82
2018-04-07T05:33:56.899Z,72.65
2018-04-07T05:36:24.622Z,73.15
2018-04-07T05:38:52.328Z,72.12
2018-04-07T05:41:20.733Z,71.63
2018-04-07T05:43:48.464Z,71.61
2018-04-07T05:46:16.176Z,72.38
2018-04-07T05:48:43.898Z,72.30
2018-04-07T05:51:11.576Z,71.56
2018-04-07T05:53:39.329Z,72.16
2018-04-07T05:56:07.085Z,71.94
2018-04-07T05:58:34.802Z,70.69
2018-04-07T06:01:02.478Z,70.45
2018-04-07T06:03:30.211Z,71.93
2018-04-07T06:05:58.016Z,70.84
2018-04-07T06:08:25.837Z,70.73
2018-04-07T06:10:53.537Z,71.13
2018-04-07T06:13:22.226Z,70.76
2018-04-07T06:15:49.952Z,72.89
2018-04-07T06:18:17.795Z,72.73
2018-04-07T06:20:45.529Z,72.72
2018-04-07T06:23:13.236Z,70.62
2018-04-07T06:25:40.911Z,70.38
2018-04-07T06:28:08.644Z,70.85
2018-04-07T06:30:36.349Z,69.53
2018-04-07T06:33:04.067Z,69.06
2018-04-07T06:35:31.786Z,68.84
2018-04-07T06:37:59.469Z,68.56
2018-04-07T06:40:27.206Z,67.50
2018-04-07T06:42:54.980Z,67.90
2018-04-07T06:45:22.690Z,67.42
2018-04-07T06:47:50.934Z,66.44
2018-04-07T06:50:19.640Z,65.02
2018-04-07T06:52:47.974Z,64.67
2018-04-07T06:55:16.735Z,66.24
2018-04-07T06:57:44.492Z,67.12
2018-04-07T07:00:12.162Z,65.12
2018-04-07T07:02:39.930Z,65.46
2018-04-07T07:05:07.699Z,64.03
2018-04-07T07:07:35.540Z,63.96
2018-04-07T07:10:03.348Z,64.18
2018-04-07T07:12:31.055Z,63.21
2018-04-07T07:14:58.769Z,62.80
2018-04-07T07:17:26.460Z,62.86
2018-04-07T07:19:54.282Z,61.88
2018-04-07T07:22:22.049Z,61.92
2018-04-07T07:24:49.787Z,61.14
2018-04-07T07:27:17.564Z,60.74
2018-04-07T07:29:45.337Z,60.19
2018-04-07T07:32:13.035Z,60.12
2018-04-07T07:34:40.719Z,59.89
2018-04-07T07:37:08.532Z,60.30
2018-04-07T07:39:36.318Z,59.97
2018-04-07T07:42:04.098Z,60.57
2018-04-07T07:44:31.822Z,61.02
2018-04-07T07:46:59.529Z,59.87
2018-04-07T07:49:27.268Z,60.26
2018-04-07T07:51:54.969Z,59.26
2018-04-07T07:54:22.737Z,59.34
2018-04-07T07:56:50.405Z,61.82
2018-04-07T07:59:18.071Z,59.56
2018-04-07T08:01:46.705Z,61.98
2018-04-07T08:04:14.426Z,63.26
2018-04-07T08:06:42.164Z,62.97
2018-04-07T08:09:09.907Z,59.70
2018-04-07T08:11:37.627Z,57.64
2018-04-07T08:14:05.307Z,56.92
2018-04-07T08:16:33.145Z,56.22
2018-04-07T08:19:00.824Z,56.39
2018-04-07T08:21:28.519Z,53.67
2018-04-07T08:23:56.229Z,53.39
2018-04-07T08:26:23.878Z,54.55
2018-04-07T08:28:51.598Z,55.62
2018-04-07T08:31:19.418Z,55.00
2018-04-07T08:33:47.084Z,53.40
2018-04-07T08:36:14.799Z,52.78
2018-04-07T08:38:42.551Z,51.49
2018-04-07T08:41:10.214Z,50.82
2018-04-07T08:43:38.008Z,51.01
2018-04-07T08:46:05.748Z,50.38
2018-04-07T08:48:33.588Z,49.47
2018-04-07T08:51:01.357Z,50.99
2018-04-07T08:53:29.296Z,49.81
2018-04-07T08:55:56.994Z,50.01
2018-04-07T08:58:24.952Z,50.01
2018-04-07T09:00:52.876Z,50.89
2018-04-07T09:03:20.904Z,51.44
2018-04-07T09:05:48.760Z,50.27
2018-04-07T09:08:16.475Z,49.44
2018-04-07T09:10:44.191Z,49.81
2018-04-07T09:13:11.902Z,50.04
2018-04-07T09:15:39.642Z,49.09
2018-04-07T09:18:07.308Z,49.13
2018-04-07T09:20:35.027Z,47.69
2018-04-07T09:23:02.720Z,47.94
2018-04-07T09:25:30.406Z,47.25
2018-04-07T09:27:58.126Z,46.74
2018-04-07T09:30:26.646Z,47.06
2018-04-07T09:32:54.514Z,46.29
2018-04-07T09:35:22.181Z,47.20
2018-04-07T09:37:49.959Z,47.87
2018-04-07T09:40:17.725Z,48.41
2018-04-07T09:42:45.471Z,47.49
2018-04-07T09:45:13.186Z,46.98
2018-04-07T09:47:40.848Z,47.21
2018-04-07T09:50:08.829Z,45.11
2018-04-07T09:52:36.577Z,45.46
2018-04-07T09:55:04.293Z,44.17
2018-04-07T09:57:32.025Z,44.61
2018-04-07T09:59:59.728Z,45.45
2018-04-07T10:02:35.973Z,45.56
2018-04-07T10:05:03.905Z,45.42
2018-04-07T10:07:31.619Z,44.72
2018-04-07T10:09:59.293Z,44.12
2018-04-07T10:12:26.961Z,41.29
2018-04-07T10:14:54.744Z,40.45
2018-04-07T10:17:22.474Z,41.38
2018-04-07T10:19:50.299Z,41.43
2018-04-07T10:22:17.976Z,42.84
2018-04-07T10:24:45.639Z,41.93
2018-04-07T10:27:13.361Z,42.52
2018-04-07T10:29:41.045Z,43.39
2018-04-07T10:32:08.851Z,42.87
2018-04-07T10:34:36.529Z,40.12
2018-04-07T10:37:04.240Z,40.38
2018-04-07T10:39:31.990Z,43.43
2018-04-07T10:41:59.701Z,46.45
2018-04-07T10:44:27.483Z,46.12
2018-04-07T10:46:55.211Z,45.39
2018-04-07T10:49:22.943Z,43.96
2018-04-07T10:51:50.649Z,42.64
2018-04-07T10:54:18.375Z,41.99
2018-04-07T10:56:46.047Z,41.61
2018-04-07T10:59:13.747Z,40.94
2018-04-07T11:01:41.457Z,40.37
2018-04-07T11:04:09.139Z,39.43
2018-04-07T11:06:36.874Z,38.47
2018-04-07T11:09:04.781Z,38.32
2018-04-07T11:11:32.506Z,37.97
2018-04-07T11:14:00.220Z,37.63
2018-04-07T11:16:27.974Z,35.96
2018-04-07T11:18:55.669Z,36.24
2018-04-07T11:21:23.396Z,36.21
2018-04-07T11:23:51.057Z,35.46
2018-04-07T11:26:18.831Z,35.73
2018-04-07T11:28:46.638Z,36.79
2018-04-07T11:31:14.314Z,39.13
2018-04-07T11:33:43.023Z,39.94
2018-04-07T11:36:19.144Z,39.44
2018-04-07T11:38:46.838Z,39.10
2018-04-07T11:41:14.673Z,38.92
2018-04-07T11:43:43.018Z,38.16
2018-04-07T11:46:10.766Z,37.53
2018-04-07T11:48:38.443Z,37.60
2018-04-07T11:51:11.853Z,37.51
2018-04-07T11:53:39.605Z,36.51
2018-04-07T11:56:07.292Z,35.01
2018-04-07T11:58:36.764Z,35.11
2018-04-07T12:01:04.475Z,34.88
2018-04-07T12:03:32.739Z,36.58
2018-04-07T12:06:05.297Z,39.88
2018-04-07T12:08:33.971Z,37.60
2018-04-07T12:11:02.463Z,37.96
2018-04-07T12:13:30.337Z,37.62
2018-04-07T12:15:58.053Z,36.96
2018-04-07T12:18:27.142Z,35.00
2018-04-07T12:20:54.849Z,34.41
2018-04-07T12:23:23.650Z,33.83
2018-04-07T12:25:51.423Z,34.10
2018-04-07T12:28:19.221Z,33.56
2018-04-07T12:30:47.010Z,32.22
2018-04-07T12:33:15.967Z,33.10
2018-04-07T12:35:43.650Z,32.85
2018-04-07T12:38:13.906Z,33.16
2018-04-07T12:40:41.706Z,32.28
2018-04-07T12:43:10.627Z,31.33
2018-04-07T12:45:38.317Z,31.24
2018-04-07T12:48:06.066Z,30.49
2018-04-07T12:53:08.247Z,29.93
2018-04-07T12:55:35.933Z,28.98
2018-04-07T12:58:04.316Z,28.12
2018-04-07T13:00:32.090Z,27.73
2018-04-07T13:02:59.882Z,27.62
2018-04-07T13:05:28.519Z,27.91
2018-04-07T13:08:03.725Z,28.98
2018-04-07T13:10:31.483Z,28.08
2018-04-07T13:13:00.314Z,26.39
2018-04-07T13:15:28.103Z,27.59
2018-04-07T13:17:55.842Z,28.71
2018-04-07T13:20:25.658Z,28.81
2018-04-07T13:22:54.107Z,28.42
2018-04-07T13:25:21.856Z,28.23
2018-04-07T13:27:49.737Z,29.62
2018-04-07T13:30:17.502Z,28.31
2018-04-07T13:32:45.238Z,28.81
2018-04-07T13:35:14.034Z,28.96
2018-04-07T13:37:41.788Z,30.57
2018-04-07T13:40:09.498Z,30.65
2018-04-07T13:42:37.221Z,31.34
2018-04-07T13:45:04.983Z,30.80
2018-04-07T13:47:35.366Z,30.60
2018-04-07T13:50:03.169Z,29.08
2018-04-07T13:52:30.871Z,29.51
2018-04-07T13:54:59.100Z,30.83
2018-04-07T13:57:27.075Z,31.19
2018-04-07T13:59:54.734Z,34.58
2018-04-07T14:02:22.444Z,34.52
2018-04-07T14:04:52.719Z,35.07
2018-04-07T14:07:20.794Z,36.27
2018-04-07T14:09:48.553Z,36.89
2018-04-07T14:12:16.271Z,38.76
2018-04-07T14:14:44.020Z,40.69
2018-04-07T14:17:12.419Z,40.61
2018-04-07T14:19:41.529Z,41.36
2018-04-07T14:22:15.978Z,42.38
2018-04-07T14:24:43.738Z,42.65
2018-04-07T14:27:11.470Z,42.60
2018-04-07T14:29:39.199Z,42.51
2018-04-07T14:32:09.001Z,42.54
2018-04-07T14:34:36.745Z,43.06
2018-04-07T14:37:04.428Z,43.15
2018-04-07T14:39:32.210Z,43.83
2018-04-07T14:41:59.990Z,44.57
2018-04-07T14:44:28.650Z,44.34
2018-04-07T14:46:56.377Z,44.12
2018-04-07T14:49:24.117Z,44.25
2018-04-07T14:51:51.810Z,43.98
2018-04-07T14:54:19.530Z,44.20
2018-04-07T14:56:47.310Z,43.43
2018-04-07T14:59:15.118Z,43.18
2018-04-07T15:01:42.860Z,42.50
2018-04-07T15:04:11.246Z,40.88
2018-04-07T15:06:40.327Z,40.47
2018-04-07T15:09:11.172Z,39.99
2018-04-07T15:11:38.916Z,37.59
2018-04-07T15:14:06.660Z,36.29
2018-04-07T15:16:34.488Z,34.76
2018-04-07T15:19:02.229Z,35.53
2018-04-07T15:21:30.007Z,33.72
2018-04-07T15:24:00.955Z,33.15
2018-04-07T15:26:32.483Z,30.86
2018-04-07T15:29:01.299Z,29.88
2018-04-07T15:31:29.027Z,29.09
2018-04-07T15:33:56.806Z,27.83
2018-04-07T15:36:24.569Z,26.77
2018-04-07T15:38:52.326Z,27.54
2018-04-07T15:41:20.002Z,28.30
2018-04-07T15:43:47.748Z,28.44
2018-04-07T15:46:15.421Z,29.81
2018-04-07T15:48:43.173Z,31.40
2018-04-07T15:51:10.976Z,33.60
2018-04-07T15:53:38.732Z,32.81
2018-04-07T15:56:06.891Z,33.66
2018-04-07T15:58:34.714Z,33.78
2018-04-07T16:01:02.597Z,35.56
2018-04-07T16:03:30.368Z,35.87
2018-04-07T16:06:00.203Z,35.44
2018-04-07T16:08:28.035Z,37.32
2018-04-07T16:10:55.798Z,38.08
2018-04-07T16:13:23.523Z,38.47
2018-04-07T16:15:51.220Z,38.11
2018-04-07T16:18:18.980Z,38.99
2018-04-07T16:20:46.821Z,38.00
2018-04-07T16:23:14.541Z,37.78
2018-04-07T16:25:42.268Z,37.67
2018-04-07T16:28:09.950Z,37.62
2018-04-07T16:30:37.756Z,38.42
2018-04-07T16:33:05.534Z,37.64
2018-04-07T16:35:33.355Z,37.42
2018-04-07T16:38:01.173Z,38.23
2018-04-07T16:40:28.964Z,39.68
2018-04-07T16:42:56.788Z,40.13
2018-04-07T16:45:24.578Z,40.44
2018-04-07T16:47:52.451Z,40.89
2018-04-07T16:50:20.272Z,40.98
2018-04-07T16:52:47.996Z,41.30
2018-04-07T16:55:15.756Z,41.32
2018-04-07T16:57:44.558Z,42.10
2018-04-07T17:00:12.296Z,42.68
2018-04-07T17:02:40.066Z,43.38
2018-04-07T17:05:07.795Z,43.97
2018-04-07T17:07:35.588Z,45.14
2018-04-07T17:10:03.342Z,45.12
2018-04-07T17:12:32.203Z,46.01
2018-04-07T17:15:00.017Z,45.63
2018-04-07T17:17:27.695Z,45.63
2018-04-07T17:19:55.427Z,45.88
2018-04-07T17:22:23.119Z,45.24
2018-04-07T17:24:50.888Z,46.36
2018-04-07T17:27:18.706Z,45.73
2018-04-07T17:29:46.399Z,45.61
2018-04-07T17:32:14.169Z,45.71
2018-04-07T17:34:41.874Z,45.68
2018-04-07T17:37:09.652Z,45.29
2018-04-07T17:39:37.367Z,46.34
2018-04-07T17:42:05.072Z,47.94
2018-04-07T17:44:32.793Z,46.91
2018-04-07T17:47:00.855Z,45.55
2018-04-07T17:49:28.547Z,45.71
2018-04-07T17:51:56.335Z,45.73
2018-04-07T17:54:24.106Z,45.02
2018-04-07T17:56:54.951Z,45.15
2018-04-07T17:59:22.895Z,45.70
2018-04-07T18:01:50.668Z,45.99
2018-04-07T18:04:19.645Z,46.49
2018-04-07T18:06:47.387Z,46.09
2018-04-07T18:09:15.136Z,46.24
2018-04-07T18:11:42.817Z,46.55
2018-04-07T18:14:10.641Z,48.17
2018-04-07T18:16:38.367Z,48.89
2018-04-07T18:19:06.220Z,49.64
2018-04-07T18:21:33.929Z,50.11
2018-04-07T18:24:01.704Z,52.05
2018-04-07T18:26:29.457Z,53.32
2018-04-07T18:28:57.263Z,53.08
2018-04-07T18:31:25.184Z,52.08
2018-04-07T18:33:52.921Z,50.09
2018-04-07T18:36:20.696Z,51.88
2018-04-07T18:38:48.505Z,51.64
2018-04-07T18:41:16.380Z,55.11
2018-04-07T18:43:44.155Z,56.53
2018-04-07T18:46:11.883Z,58.62
2018-04-07T18:48:39.634Z,59.62
2018-04-07T18:51:07.453Z,59.45
2018-04-07T18:53:35.455Z,60.08
2018-04-07T18:56:03.284Z,59.27
2018-04-07T18:58:31.120Z,59.06
2018-04-07T19:00:58.866Z,56.06
2018-04-07T19:03:26.712Z,55.99
2018-04-07T19:05:54.466Z,58.89
2018-04-07T19:08:22.280Z,60.41
2018-04-07T19:10:50.118Z,60.46
2018-04-07T19:13:17.901Z,60.76
2018-04-07T19:15:45.591Z,61.32
2018-04-07T19:18:13.328Z,61.43
2018-04-07T19:20:41.087Z,61.69
2018-04-07T19:23:08.794Z,61.91
2018-04-07T19:25:36.481Z,61.99
2018-04-07T19:28:04.261Z,62.05
2018-04-07T19:30:32.047Z,61.49
2018-04-07T19:32:59.777Z,60.99
2018-04-07T19:35:27.585Z,61.66
2018-04-07T19:37:55.386Z,61.00
2018-04-07T19:40:23.168Z,60.90
2018-04-07T19:42:50.948Z,61.44
2018-04-07T19:45:18.645Z,61.71
2018-04-07T19:47:46.457Z,61.34
2018-04-07T19:50:14.205Z,61.09
2018-04-07T19:52:41.913Z,60.35
2018-04-07T19:55:09.702Z,60.40
2018-04-07T19:57:37.521Z,60.36
2018-04-07T20:00:05.309Z,59.13
2018-04-07T20:02:33.017Z,59.36
2018-04-07T20:05:00.856Z,59.94
2018-04-07T20:07:28.549Z,58.13
2018-04-07T20:09:56.301Z,58.60
2018-04-07T20:12:24.172Z,59.19
2018-04-07T20:14:51.910Z,59.10
2018-04-07T20:17:19.628Z,59.39
2018-04-07T20:19:47.478Z,59.40
2018-04-07T20:22:15.863Z,59.87
2018-04-07T20:24:43.627Z,58.70
2018-04-07T20:27:11.347Z,59.27
2018-04-07T20:32:12.973Z,57.26
2018-04-07T20:34:40.689Z,56.81
2018-04-07T20:37:08.409Z,57.03
2018-04-07T20:39:36.588Z,56.19
2018-04-07T20:42:16.213Z,55.92
2018-04-07T20:44:43.977Z,55.64
2018-04-07T20:47:11.760Z,55.95
2018-04-07T20:49:39.506Z,55.60
2018-04-07T20:52:07.180Z,54.92
2018-04-07T20:54:34.906Z,55.24
2018-04-07T20:57:02.640Z,54.98
2018-04-07T20:59:30.325Z,54.85
2018-04-07T21:01:58.980Z,54.75
2018-04-07T21:04:26.820Z,54.70
2018-04-07T21:06:54.685Z,54.57
2018-04-07T21:09:23.421Z,54.64
2018-04-07T21:11:51.168Z,54.61
2018-04-07T21:14:18.842Z,54.89
2018-04-07T21:16:46.516Z,55.09
2018-04-07T21:19:14.263Z,54.89
2018-04-07T21:21:42.184Z,55.00
2018-04-07T21:24:09.899Z,55.29
2018-04-07T21:26:37.649Z,54.97
2018-04-07T21:29:05.428Z,55.28
2018-04-07T21:31:33.118Z,55.43
2018-04-07T21:34:00.894Z,55.67
2018-04-07T21:36:28.610Z,55.93
2018-04-07T21:38:56.376Z,56.08
2018-04-07T21:41:24.782Z,55.99
2018-04-07T21:43:52.625Z,55.95
2018-04-07T21:46:21.277Z,55.94
2018-04-07T21:48:49.949Z,56.13
2018-04-07T21:51:18.609Z,56.06
2018-04-07T21:53:47.156Z,56.16
2018-04-07T21:56:15.724Z,56.24
2018-04-07T21:58:43.516Z,56.11
2018-04-07T22:01:11.181Z,56.10
2018-04-07T22:03:38.916Z,56.00
2018-04-07T22:06:06.663Z,56.16
2018-04-07T22:08:34.461Z,56.15
2018-04-07T22:11:02.270Z,56.15
2018-04-07T22:13:30.056Z,56.08
2018-04-07T22:15:57.825Z,56.15
2018-04-07T22:18:25.549Z,56.31
2018-04-07T22:20:53.228Z,56.24
2018-04-07T22:23:21.019Z,56.25
2018-04-07T22:25:49.308Z,56.35
2018-04-07T22:28:17.126Z,56.36
2018-04-07T22:30:45.951Z,56.52
2018-04-07T22:33:13.760Z,56.54
2018-04-07T22:35:41.552Z,56.60
2018-04-07T22:38:09.364Z,57.07
2018-04-07T22:40:37.095Z,56.89
2018-04-07T22:43:04.863Z,57.02
2018-04-07T22:45:32.621Z,57.01
2018-04-07T22:48:00.348Z,56.95
2018-04-07T22:50:29.023Z,57.34
2018-04-07T22:52:56.893Z,57.20
2018-04-07T22:55:24.773Z,56.74
2018-04-07T22:57:52.488Z,57.25
2018-04-07T23:00:21.016Z,57.01
2018-04-07T23:02:48.836Z,57.01
2018-04-07T23:05:16.496Z,56.50
2018-04-07T23:07:44.226Z,56.42
2018-04-07T23:10:11.931Z,55.76
2018-04-07T23:12:39.812Z,56.04
2018-04-07T23:15:08.246Z,55.87
2018-04-07T23:17:36.004Z,55.33
2018-04-07T23:20:03.706Z,55.79
2018-04-07T23:22:31.403Z,55.55
2018-04-07T23:24:59.204Z,54.77
2018-04-07T23:27:27.128Z,55.35
2018-04-07T23:29:54.993Z,55.49
2018-04-07T23:32:22.716Z,55.66
2018-04-07T23:34:53.527Z,55.78
2018-04-07T23:37:21.609Z,55.72
2018-04-07T23:39:49.355Z,55.97
2018-04-07T23:42:17.166Z,55.33
2018-04-07T23:44:44.904Z,54.95
2018-04-07T23:47:13.586Z,55.68
2018-04-07T23:49:41.457Z,55.58
2018-04-07T23:52:09.202Z,55.67
2018-04-07T23:54:36.930Z,55.67
2018-04-07T23:57:04.722Z,56.40
2018-04-07T23:59:33.308Z,56.65
